sensor_id;sensor_type;location;lat;lon;timestamp;P1;durP1;ratioP1;P2;durP2;ratioP2
69280;SDS011;56392;51.082;17.080;2022-09-09T00:01:00;14.10;;;8.13;;
69280;SDS011;56392;51.082;17.080;2022-09-09T00:06:12;13.90;;;7.22;;
69280;SDS011;56392;51.082;17.080;2022-09-09T00:11:23;14.57;;;9.03;;
69280;SDS011;56392;51.082;17.080;2022-09-09T00:16:31;18.67;;;12.18;;
69280;SDS011;56392;51.082;17.080;2022-09-09T00:21:37;12.93;;;8.05;;
69280;SDS011;56392;51.082;17.080;2022-09-09T00:26:42;10.93;;;7.30;;
69280;SDS011;56392;51.082;17.080;2022-09-09T00:31:49;11.37;;;7.20;;
69280;SDS011;56392;51.082;17.080;2022-09-09T00:36:55;10.68;;;7.20;;
69280;SDS011;56392;51.082;17.080;2022-09-09T00:42:02;16.17;;;11.30;;
69280;SDS011;56392;51.082;17.080;2022-09-09T00:47:21;11.60;;;8.13;;
69280;SDS011;56392;51.082;17.080;2022-09-09T00:52:36;14.43;;;6.90;;
69280;SDS011;56392;51.082;17.080;2022-09-09T00:57:47;10.30;;;6.65;;
69280;SDS011;56392;51.082;17.080;2022-09-09T01:02:57;12.27;;;6.53;;
69280;SDS011;56392;51.082;17.080;2022-09-09T01:08:11;13.57;;;7.20;;
69280;SDS011;56392;51.082;17.080;2022-09-09T01:13:27;13.35;;;8.65;;
69280;SDS011;56392;51.082;17.080;2022-09-09T01:18:32;11.40;;;7.10;;
69280;SDS011;56392;51.082;17.080;2022-09-09T01:23:56;12.53;;;6.97;;
69280;SDS011;56392;51.082;17.080;2022-09-09T01:29:12;11.43;;;6.55;;
69280;SDS011;56392;51.082;17.080;2022-09-09T01:34:18;10.63;;;5.95;;
69280;SDS011;56392;51.082;17.080;2022-09-09T01:39:21;10.87;;;6.00;;
69280;SDS011;56392;51.082;17.080;2022-09-09T01:44:25;9.00;;;5.57;;
69280;SDS011;56392;51.082;17.080;2022-09-09T01:49:29;13.27;;;5.80;;
69280;SDS011;56392;51.082;17.080;2022-09-09T01:54:33;9.53;;;5.30;;
69280;SDS011;56392;51.082;17.080;2022-09-09T01:59:41;8.90;;;5.25;;
69280;SDS011;56392;51.082;17.080;2022-09-09T02:04:52;12.15;;;5.57;;
69280;SDS011;56392;51.082;17.080;2022-09-09T02:10:00;9.43;;;5.10;;
69280;SDS011;56392;51.082;17.080;2022-09-09T02:15:11;9.50;;;5.70;;
69280;SDS011;56392;51.082;17.080;2022-09-09T02:20:20;10.43;;;5.00;;
69280;SDS011;56392;51.082;17.080;2022-09-09T02:25:26;9.43;;;5.30;;
69280;SDS011;56392;51.082;17.080;2022-09-09T02:30:32;8.90;;;5.03;;
69280;SDS011;56392;51.082;17.080;2022-09-09T02:35:37;9.18;;;5.07;;
69280;SDS011;56392;51.082;17.080;2022-09-09T02:40:41;8.68;;;5.28;;
69280;SDS011;56392;51.082;17.080;2022-09-09T02:45:47;10.10;;;4.57;;
69280;SDS011;56392;51.082;17.080;2022-09-09T02:50:59;9.95;;;4.60;;
69280;SDS011;56392;51.082;17.080;2022-09-09T02:56:08;8.13;;;4.32;;
69280;SDS011;56392;51.082;17.080;2022-09-09T03:01:16;11.40;;;5.00;;
69280;SDS011;56392;51.082;17.080;2022-09-09T03:06:19;7.97;;;4.63;;
69280;SDS011;56392;51.082;17.080;2022-09-09T03:11:22;9.30;;;4.57;;
69280;SDS011;56392;51.082;17.080;2022-09-09T03:16:26;7.85;;;4.55;;
69280;SDS011;56392;51.082;17.080;2022-09-09T03:21:29;7.60;;;3.93;;
69280;SDS011;56392;51.082;17.080;2022-09-09T03:26:31;9.07;;;5.05;;
69280;SDS011;56392;51.082;17.080;2022-09-09T03:31:35;10.48;;;4.90;;
69280;SDS011;56392;51.082;17.080;2022-09-09T03:36:38;9.97;;;5.33;;
69280;SDS011;56392;51.082;17.080;2022-09-09T03:41:42;13.63;;;5.15;;
69280;SDS011;56392;51.082;17.080;2022-09-09T03:46:47;8.85;;;4.70;;
69280;SDS011;56392;51.082;17.080;2022-09-09T03:51:50;10.67;;;4.90;;
69280;SDS011;56392;51.082;17.080;2022-09-09T03:56:53;10.00;;;5.13;;
69280;SDS011;56392;51.082;17.080;2022-09-09T04:01:57;10.65;;;4.50;;
69280;SDS011;56392;51.082;17.080;2022-09-09T04:07:00;11.30;;;4.60;;
69280;SDS011;56392;51.082;17.080;2022-09-09T04:12:03;7.97;;;4.73;;
69280;SDS011;56392;51.082;17.080;2022-09-09T04:17:08;11.70;;;5.20;;
69280;SDS011;56392;51.082;17.080;2022-09-09T04:22:11;9.35;;;5.57;;
69280;SDS011;56392;51.082;17.080;2022-09-09T04:27:13;8.37;;;5.27;;
69280;SDS011;56392;51.082;17.080;2022-09-09T04:32:17;10.35;;;5.05;;
69280;SDS011;56392;51.082;17.080;2022-09-09T04:37:20;12.30;;;6.15;;
69280;SDS011;56392;51.082;17.080;2022-09-09T04:42:22;9.10;;;5.50;;
69280;SDS011;56392;51.082;17.080;2022-09-09T04:47:26;10.13;;;5.60;;
69280;SDS011;56392;51.082;17.080;2022-09-09T04:52:29;12.18;;;5.90;;
69280;SDS011;56392;51.082;17.080;2022-09-09T04:57:32;10.80;;;5.95;;
69280;SDS011;56392;51.082;17.080;2022-09-09T05:02:38;10.87;;;5.77;;
69280;SDS011;56392;51.082;17.080;2022-09-09T05:07:42;11.77;;;5.55;;
69280;SDS011;56392;51.082;17.080;2022-09-09T05:12:51;10.25;;;5.50;;
69280;SDS011;56392;51.082;17.080;2022-09-09T05:17:58;9.93;;;5.63;;
69280;SDS011;56392;51.082;17.080;2022-09-09T05:23:01;16.20;;;6.78;;
69280;SDS011;56392;51.082;17.080;2022-09-09T05:28:03;16.98;;;7.47;;
69280;SDS011;56392;51.082;17.080;2022-09-09T05:33:07;15.13;;;7.80;;
69280;SDS011;56392;51.082;17.080;2022-09-09T05:38:10;13.67;;;7.50;;
69280;SDS011;56392;51.082;17.080;2022-09-09T05:43:13;11.13;;;7.00;;
69280;SDS011;56392;51.082;17.080;2022-09-09T05:48:17;12.85;;;6.70;;
69280;SDS011;56392;51.082;17.080;2022-09-09T05:53:20;9.60;;;6.30;;
69280;SDS011;56392;51.082;17.080;2022-09-09T05:58:22;13.38;;;6.50;;
69280;SDS011;56392;51.082;17.080;2022-09-09T06:03:26;9.82;;;6.68;;
69280;SDS011;56392;51.082;17.080;2022-09-09T06:08:29;13.10;;;6.47;;
69280;SDS011;56392;51.082;17.080;2022-09-09T06:13:31;13.98;;;6.80;;
69280;SDS011;56392;51.082;17.080;2022-09-09T06:18:36;9.90;;;5.53;;
69280;SDS011;56392;51.082;17.080;2022-09-09T06:23:39;8.40;;;5.10;;
69280;SDS011;56392;51.082;17.080;2022-09-09T06:28:42;10.57;;;5.17;;
69280;SDS011;56392;51.082;17.080;2022-09-09T06:33:46;8.38;;;4.85;;
69280;SDS011;56392;51.082;17.080;2022-09-09T06:38:50;8.63;;;3.40;;
69280;SDS011;56392;51.082;17.080;2022-09-09T06:43:53;7.90;;;3.40;;
69280;SDS011;56392;51.082;17.080;2022-09-09T06:48:58;8.85;;;3.30;;
69280;SDS011;56392;51.082;17.080;2022-09-09T06:54:01;8.48;;;3.20;;
69280;SDS011;56392;51.082;17.080;2022-09-09T06:59:05;6.57;;;3.00;;
69280;SDS011;56392;51.082;17.080;2022-09-09T07:04:12;8.43;;;3.47;;
69280;SDS011;56392;51.082;17.080;2022-09-09T07:09:16;6.40;;;2.80;;
69280;SDS011;56392;51.082;17.080;2022-09-09T07:14:19;6.03;;;2.30;;
69280;SDS011;56392;51.082;17.080;2022-09-09T07:19:24;6.20;;;2.27;;
69280;SDS011;56392;51.082;17.080;2022-09-09T07:24:26;6.47;;;2.30;;
69280;SDS011;56392;51.082;17.080;2022-09-09T07:29:32;7.88;;;2.30;;
69280;SDS011;56392;51.082;17.080;2022-09-09T07:34:36;6.60;;;2.30;;
69280;SDS011;56392;51.082;17.080;2022-09-09T07:39:38;8.80;;;2.47;;
69280;SDS011;56392;51.082;17.080;2022-09-09T07:44:42;6.90;;;2.00;;
69280;SDS011;56392;51.082;17.080;2022-09-09T07:49:47;5.30;;;2.10;;
69280;SDS011;56392;51.082;17.080;2022-09-09T07:54:52;5.97;;;2.10;;
69280;SDS011;56392;51.082;17.080;2022-09-09T07:59:58;7.38;;;2.00;;
69280;SDS011;56392;51.082;17.080;2022-09-09T08:05:07;7.80;;;2.08;;
69280;SDS011;56392;51.082;17.080;2022-09-09T08:10:10;7.97;;;2.37;;
69280;SDS011;56392;51.082;17.080;2022-09-09T08:15:15;8.48;;;2.17;;
69280;SDS011;56392;51.082;17.080;2022-09-09T08:20:20;5.95;;;2.08;;
69280;SDS011;56392;51.082;17.080;2022-09-09T08:25:24;7.33;;;2.20;;
69280;SDS011;56392;51.082;17.080;2022-09-09T08:30:29;7.05;;;1.90;;
69280;SDS011;56392;51.082;17.080;2022-09-09T08:35:34;7.07;;;2.00;;
69280;SDS011;56392;51.082;17.080;2022-09-09T08:40:38;7.23;;;2.20;;
69280;SDS011;56392;51.082;17.080;2022-09-09T08:45:47;5.45;;;1.80;;
69280;SDS011;56392;51.082;17.080;2022-09-09T08:50:59;6.43;;;1.90;;
69280;SDS011;56392;51.082;17.080;2022-09-09T08:56:06;7.07;;;2.10;;
69280;SDS011;56392;51.082;17.080;2022-09-09T09:06:46;6.72;;;2.17;;
69280;SDS011;56392;51.082;17.080;2022-09-09T09:11:56;5.68;;;1.80;;
69280;SDS011;56392;51.082;17.080;2022-09-09T09:17:02;4.17;;;1.50;;
69280;SDS011;56392;51.082;17.080;2022-09-09T09:22:13;7.63;;;2.00;;
69280;SDS011;56392;51.082;17.080;2022-09-09T09:27:21;4.68;;;1.70;;
69280;SDS011;56392;51.082;17.080;2022-09-09T09:32:33;4.70;;;1.87;;
69280;SDS011;56392;51.082;17.080;2022-09-09T09:37:40;5.40;;;2.00;;
69280;SDS011;56392;51.082;17.080;2022-09-09T09:42:49;7.63;;;1.60;;
69280;SDS011;56392;51.082;17.080;2022-09-09T09:47:57;5.95;;;1.70;;
69280;SDS011;56392;51.082;17.080;2022-09-09T09:53:03;7.07;;;1.70;;
69280;SDS011;56392;51.082;17.080;2022-09-09T09:58:13;6.97;;;1.60;;
69280;SDS011;56392;51.082;17.080;2022-09-09T10:03:25;6.10;;;1.90;;
69280;SDS011;56392;51.082;17.080;2022-09-09T10:08:33;4.43;;;1.50;;
69280;SDS011;56392;51.082;17.080;2022-09-09T10:13:49;6.57;;;1.70;;
69280;SDS011;56392;51.082;17.080;2022-09-09T10:19:01;5.03;;;1.50;;
69280;SDS011;56392;51.082;17.080;2022-09-09T10:24:22;5.73;;;1.70;;
69280;SDS011;56392;51.082;17.080;2022-09-09T10:29:40;6.07;;;1.67;;
69280;SDS011;56392;51.082;17.080;2022-09-09T10:34:56;6.10;;;1.60;;
69280;SDS011;56392;51.082;17.080;2022-09-09T10:40:12;5.70;;;1.58;;
69280;SDS011;56392;51.082;17.080;2022-09-09T10:45:27;6.97;;;1.70;;
69280;SDS011;56392;51.082;17.080;2022-09-09T10:50:52;4.75;;;1.50;;
69280;SDS011;56392;51.082;17.080;2022-09-09T10:56:01;5.90;;;1.50;;
69280;SDS011;56392;51.082;17.080;2022-09-09T11:01:10;6.83;;;1.40;;
69280;SDS011;56392;51.082;17.080;2022-09-09T11:06:17;5.18;;;1.50;;
69280;SDS011;56392;51.082;17.080;2022-09-09T11:11:27;5.57;;;1.60;;
69280;SDS011;56392;51.082;17.080;2022-09-09T11:16:35;6.30;;;1.33;;
69280;SDS011;56392;51.082;17.080;2022-09-09T11:21:44;4.90;;;1.52;;
69280;SDS011;56392;51.082;17.080;2022-09-09T11:26:51;4.28;;;1.52;;
69280;SDS011;56392;51.082;17.080;2022-09-09T11:32:00;5.95;;;1.70;;
69280;SDS011;56392;51.082;17.080;2022-09-09T11:37:17;6.40;;;1.60;;
69280;SDS011;56392;51.082;17.080;2022-09-09T11:42:34;6.22;;;1.60;;
69280;SDS011;56392;51.082;17.080;2022-09-09T11:47:37;6.20;;;1.60;;
69280;SDS011;56392;51.082;17.080;2022-09-09T11:52:40;4.33;;;1.30;;
69280;SDS011;56392;51.082;17.080;2022-09-09T11:57:48;4.82;;;1.55;;
69280;SDS011;56392;51.082;17.080;2022-09-09T12:02:58;4.90;;;1.52;;
69280;SDS011;56392;51.082;17.080;2022-09-09T12:08:01;4.03;;;1.30;;
69280;SDS011;56392;51.082;17.080;2022-09-09T12:13:09;5.20;;;1.38;;
69280;SDS011;56392;51.082;17.080;2022-09-09T12:18:21;7.35;;;1.50;;
69280;SDS011;56392;51.082;17.080;2022-09-09T12:23:29;6.25;;;1.40;;
69280;SDS011;56392;51.082;17.080;2022-09-09T12:28:41;5.47;;;1.40;;
69280;SDS011;56392;51.082;17.080;2022-09-09T12:33:52;6.47;;;1.50;;
69280;SDS011;56392;51.082;17.080;2022-09-09T12:38:55;6.15;;;1.30;;
69280;SDS011;56392;51.082;17.080;2022-09-09T12:44:04;3.77;;;1.37;;
69280;SDS011;56392;51.082;17.080;2022-09-09T12:49:20;5.50;;;1.50;;
69280;SDS011;56392;51.082;17.080;2022-09-09T12:54:30;5.97;;;1.48;;
69280;SDS011;56392;51.082;17.080;2022-09-09T12:59:38;4.27;;;1.20;;
69280;SDS011;56392;51.082;17.080;2022-09-09T13:04:42;5.32;;;1.50;;
69280;SDS011;56392;51.082;17.080;2022-09-09T13:09:48;4.10;;;1.20;;
69280;SDS011;56392;51.082;17.080;2022-09-09T13:14:53;4.90;;;1.40;;
69280;SDS011;56392;51.082;17.080;2022-09-09T13:19:58;5.30;;;1.50;;
69280;SDS011;56392;51.082;17.080;2022-09-09T13:25:02;5.30;;;1.58;;
69280;SDS011;56392;51.082;17.080;2022-09-09T13:30:20;6.65;;;1.60;;
69280;SDS011;56392;51.082;17.080;2022-09-09T13:35:25;5.53;;;1.40;;
69280;SDS011;56392;51.082;17.080;2022-09-09T13:40:28;4.85;;;1.50;;
69280;SDS011;56392;51.082;17.080;2022-09-09T13:45:33;5.32;;;1.50;;
69280;SDS011;56392;51.082;17.080;2022-09-09T13:50:37;6.17;;;1.57;;
69280;SDS011;56392;51.082;17.080;2022-09-09T13:55:40;6.53;;;1.60;;
69280;SDS011;56392;51.082;17.080;2022-09-09T14:00:44;4.95;;;1.60;;
69280;SDS011;56392;51.082;17.080;2022-09-09T14:05:47;5.28;;;1.45;;
69280;SDS011;56392;51.082;17.080;2022-09-09T14:10:51;4.20;;;1.40;;
69280;SDS011;56392;51.082;17.080;2022-09-09T14:15:58;4.68;;;1.60;;
69280;SDS011;56392;51.082;17.080;2022-09-09T14:21:00;6.15;;;1.70;;
69280;SDS011;56392;51.082;17.080;2022-09-09T14:26:04;5.33;;;1.63;;
69280;SDS011;56392;51.082;17.080;2022-09-09T14:31:08;5.30;;;1.73;;
69280;SDS011;56392;51.082;17.080;2022-09-09T14:36:11;5.53;;;1.70;;
69280;SDS011;56392;51.082;17.080;2022-09-09T14:41:14;7.33;;;1.77;;
69280;SDS011;56392;51.082;17.080;2022-09-09T14:46:23;4.20;;;1.40;;
69280;SDS011;56392;51.082;17.080;2022-09-09T14:51:26;5.85;;;1.92;;
69280;SDS011;56392;51.082;17.080;2022-09-09T14:56:32;6.80;;;1.90;;
69280;SDS011;56392;51.082;17.080;2022-09-09T15:01:37;7.00;;;1.73;;
69280;SDS011;56392;51.082;17.080;2022-09-09T15:06:40;5.78;;;1.80;;
69280;SDS011;56392;51.082;17.080;2022-09-09T15:11:45;5.10;;;1.70;;
69280;SDS011;56392;51.082;17.080;2022-09-09T15:16:49;6.77;;;1.97;;
69280;SDS011;56392;51.082;17.080;2022-09-09T15:21:51;5.15;;;1.70;;
69280;SDS011;56392;51.082;17.080;2022-09-09T15:26:55;5.50;;;1.73;;
69280;SDS011;56392;51.082;17.080;2022-09-09T15:31:59;6.80;;;1.60;;
69280;SDS011;56392;51.082;17.080;2022-09-09T15:37:02;7.05;;;1.65;;
69280;SDS011;56392;51.082;17.080;2022-09-09T15:42:05;6.75;;;1.80;;
69280;SDS011;56392;51.082;17.080;2022-09-09T15:47:11;7.88;;;1.63;;
69280;SDS011;56392;51.082;17.080;2022-09-09T15:52:16;4.00;;;1.33;;
69280;SDS011;56392;51.082;17.080;2022-09-09T15:57:19;6.95;;;1.85;;
69280;SDS011;56392;51.082;17.080;2022-09-09T16:02:23;7.78;;;1.73;;
69280;SDS011;56392;51.082;17.080;2022-09-09T16:07:25;8.30;;;1.70;;
69280;SDS011;56392;51.082;17.080;2022-09-09T16:12:28;9.10;;;1.88;;
69280;SDS011;56392;51.082;17.080;2022-09-09T16:17:32;5.25;;;1.50;;
69280;SDS011;56392;51.082;17.080;2022-09-09T16:22:38;7.70;;;1.90;;
69280;SDS011;56392;51.082;17.080;2022-09-09T16:27:41;4.95;;;1.80;;
69280;SDS011;56392;51.082;17.080;2022-09-09T16:32:46;5.65;;;1.60;;
69280;SDS011;56392;51.082;17.080;2022-09-09T16:37:48;6.47;;;1.80;;
69280;SDS011;56392;51.082;17.080;2022-09-09T16:42:51;4.93;;;1.60;;
69280;SDS011;56392;51.082;17.080;2022-09-09T16:47:55;7.47;;;1.90;;
69280;SDS011;56392;51.082;17.080;2022-09-09T16:52:57;5.97;;;1.95;;
69280;SDS011;56392;51.082;17.080;2022-09-09T16:58:00;9.33;;;2.37;;
69280;SDS011;56392;51.082;17.080;2022-09-09T17:03:04;6.43;;;2.40;;
69280;SDS011;56392;51.082;17.080;2022-09-09T17:08:06;7.30;;;2.58;;
69280;SDS011;56392;51.082;17.080;2022-09-09T17:13:10;8.20;;;3.17;;
69280;SDS011;56392;51.082;17.080;2022-09-09T17:18:15;7.45;;;2.63;;
69280;SDS011;56392;51.082;17.080;2022-09-09T17:23:18;7.43;;;2.20;;
69280;SDS011;56392;51.082;17.080;2022-09-09T17:28:20;6.77;;;1.83;;
69280;SDS011;56392;51.082;17.080;2022-09-09T17:33:28;10.20;;;2.20;;
69280;SDS011;56392;51.082;17.080;2022-09-09T17:38:32;9.25;;;3.03;;
69280;SDS011;56392;51.082;17.080;2022-09-09T17:43:35;11.65;;;5.53;;
69280;SDS011;56392;51.082;17.080;2022-09-09T17:48:40;13.30;;;6.23;;
69280;SDS011;56392;51.082;17.080;2022-09-09T17:53:44;8.23;;;2.95;;
69280;SDS011;56392;51.082;17.080;2022-09-09T17:58:49;10.55;;;4.50;;
69280;SDS011;56392;51.082;17.080;2022-09-09T18:03:54;8.00;;;2.60;;
69280;SDS011;56392;51.082;17.080;2022-09-09T18:08:59;7.65;;;2.50;;
69280;SDS011;56392;51.082;17.080;2022-09-09T18:14:03;8.05;;;2.55;;
69280;SDS011;56392;51.082;17.080;2022-09-09T18:19:09;7.30;;;2.30;;
69280;SDS011;56392;51.082;17.080;2022-09-09T18:24:15;6.43;;;2.90;;
69280;SDS011;56392;51.082;17.080;2022-09-09T18:29:20;7.97;;;2.50;;
69280;SDS011;56392;51.082;17.080;2022-09-09T18:34:26;5.95;;;2.00;;
69280;SDS011;56392;51.082;17.080;2022-09-09T18:39:30;8.23;;;2.03;;
69280;SDS011;56392;51.082;17.080;2022-09-09T18:44:33;8.00;;;2.20;;
69280;SDS011;56392;51.082;17.080;2022-09-09T18:49:38;6.90;;;2.45;;
69280;SDS011;56392;51.082;17.080;2022-09-09T18:54:41;8.27;;;2.90;;
69280;SDS011;56392;51.082;17.080;2022-09-09T18:59:46;10.10;;;4.07;;
69280;SDS011;56392;51.082;17.080;2022-09-09T19:04:51;10.85;;;5.30;;
69280;SDS011;56392;51.082;17.080;2022-09-09T19:09:53;11.77;;;6.10;;
69280;SDS011;56392;51.082;17.080;2022-09-09T19:14:57;13.33;;;6.30;;
69280;SDS011;56392;51.082;17.080;2022-09-09T19:20:02;11.50;;;6.93;;
69280;SDS011;56392;51.082;17.080;2022-09-09T19:25:06;11.10;;;6.22;;
69280;SDS011;56392;51.082;17.080;2022-09-09T19:30:09;13.20;;;6.20;;
69280;SDS011;56392;51.082;17.080;2022-09-09T19:35:15;12.02;;;5.65;;
69280;SDS011;56392;51.082;17.080;2022-09-09T19:40:22;11.80;;;3.67;;
69280;SDS011;56392;51.082;17.080;2022-09-09T19:45:26;10.17;;;3.20;;
69280;SDS011;56392;51.082;17.080;2022-09-09T19:50:31;7.65;;;2.88;;
69280;SDS011;56392;51.082;17.080;2022-09-09T19:55:38;8.43;;;2.80;;
69280;SDS011;56392;51.082;17.080;2022-09-09T20:00:42;7.97;;;2.33;;
69280;SDS011;56392;51.082;17.080;2022-09-09T20:05:48;7.83;;;3.10;;
69280;SDS011;56392;51.082;17.080;2022-09-09T20:10:51;11.93;;;3.72;;
69280;SDS011;56392;51.082;17.080;2022-09-09T20:15:57;8.38;;;3.60;;
69280;SDS011;56392;51.082;17.080;2022-09-09T20:21:03;8.47;;;3.23;;
69280;SDS011;56392;51.082;17.080;2022-09-09T20:26:07;8.43;;;2.92;;
69280;SDS011;56392;51.082;17.080;2022-09-09T20:31:13;8.52;;;2.58;;
69280;SDS011;56392;51.082;17.080;2022-09-09T20:36:19;7.47;;;3.33;;
69280;SDS011;56392;51.082;17.080;2022-09-09T20:41:24;8.20;;;3.45;;
69280;SDS011;56392;51.082;17.080;2022-09-09T20:46:29;7.93;;;2.88;;
69280;SDS011;56392;51.082;17.080;2022-09-09T20:51:34;7.70;;;2.90;;
69280;SDS011;56392;51.082;17.080;2022-09-09T20:56:39;9.17;;;3.30;;
69280;SDS011;56392;51.082;17.080;2022-09-09T21:01:42;7.85;;;3.10;;
69280;SDS011;56392;51.082;17.080;2022-09-09T21:06:49;13.57;;;2.75;;
69280;SDS011;56392;51.082;17.080;2022-09-09T21:11:52;8.07;;;2.80;;
69280;SDS011;56392;51.082;17.080;2022-09-09T21:16:55;7.63;;;3.00;;
69280;SDS011;56392;51.082;17.080;2022-09-09T21:21:59;7.15;;;2.42;;
69280;SDS011;56392;51.082;17.080;2022-09-09T21:27:02;10.10;;;2.20;;
69280;SDS011;56392;51.082;17.080;2022-09-09T21:32:04;10.65;;;2.78;;
69280;SDS011;56392;51.082;17.080;2022-09-09T21:37:09;9.15;;;2.60;;
69280;SDS011;56392;51.082;17.080;2022-09-09T21:42:12;7.60;;;2.70;;
69280;SDS011;56392;51.082;17.080;2022-09-09T21:47:15;6.77;;;2.60;;
69280;SDS011;56392;51.082;17.080;2022-09-09T21:52:19;7.50;;;2.90;;
69280;SDS011;56392;51.082;17.080;2022-09-09T21:57:21;8.25;;;2.90;;
69280;SDS011;56392;51.082;17.080;2022-09-09T22:02:24;8.00;;;2.70;;
69280;SDS011;56392;51.082;17.080;2022-09-09T22:07:29;8.05;;;2.65;;
69280;SDS011;56392;51.082;17.080;2022-09-09T22:12:33;8.68;;;2.70;;
69280;SDS011;56392;51.082;17.080;2022-09-09T22:17:35;8.37;;;2.50;;
69280;SDS011;56392;51.082;17.080;2022-09-09T22:22:40;9.98;;;2.30;;
69280;SDS011;56392;51.082;17.080;2022-09-09T22:27:43;7.30;;;2.33;;
69280;SDS011;56392;51.082;17.080;2022-09-09T22:32:45;7.17;;;2.00;;
69280;SDS011;56392;51.082;17.080;2022-09-09T22:37:49;8.50;;;2.40;;
69280;SDS011;56392;51.082;17.080;2022-09-09T22:42:53;7.65;;;1.70;;
69280;SDS011;56392;51.082;17.080;2022-09-09T22:47:57;7.15;;;2.13;;
69280;SDS011;56392;51.082;17.080;2022-09-09T22:53:01;5.80;;;1.40;;
69280;SDS011;56392;51.082;17.080;2022-09-09T22:58:04;7.47;;;1.73;;
69280;SDS011;56392;51.082;17.080;2022-09-09T23:03:06;8.43;;;1.95;;
69280;SDS011;56392;51.082;17.080;2022-09-09T23:08:10;6.40;;;1.67;;
69280;SDS011;56392;51.082;17.080;2022-09-09T23:13:13;6.43;;;1.80;;
69280;SDS011;56392;51.082;17.080;2022-09-09T23:18:16;5.38;;;1.50;;
69280;SDS011;56392;51.082;17.080;2022-09-09T23:23:20;7.87;;;1.80;;
69280;SDS011;56392;51.082;17.080;2022-09-09T23:28:22;6.37;;;1.57;;
69280;SDS011;56392;51.082;17.080;2022-09-09T23:33:26;4.57;;;1.42;;
69280;SDS011;56392;51.082;17.080;2022-09-09T23:38:30;5.90;;;1.67;;
69280;SDS011;56392;51.082;17.080;2022-09-09T23:43:33;6.30;;;1.50;;
69280;SDS011;56392;51.082;17.080;2022-09-09T23:48:37;4.90;;;1.50;;
69280;SDS011;56392;51.082;17.080;2022-09-09T23:53:41;9.30;;;4.05;;
69280;SDS011;56392;51.082;17.080;2022-09-09T23:58:44;5.47;;;1.53;;
